Time;durP1;ratioP1;P1;durP2;ratioP2;P2;SDS_P1;SDS_P2;PMS_P1;PMS_P2;Temp;Humidity;BMP_temperature;BMP_pressure;BME280_temperature;BME280_humidity;BME280_pressure;Samples;Min_cycle;Max_cycle;Signal;HPM_P1;HPM_P2
2021/05/22 00:00:10;;;;;;;5.57;1.60;;;11.10;69.60;10.20;99927.00;;;;4963848;28;20246;-80
2021/05/22 00:02:37;;;;;;;5.70;2.00;;;;;10.20;99924.00;;;;4930371;28;20141;-79
2021/05/22 00:05:05;;;;;;;8.52;1.98;;;11.00;69.80;10.10;99921.00;;;;4955828;28;20049;-80
2021/05/22 00:07:32;;;;;;;6.05;1.60;;;11.00;69.80;10.20;99923.00;;;;4954088;28;20054;-80
2021/05/22 00:09:58;;;;;;;3.13;1.70;;;11.00;70.00;10.20;99914.00;;;;4953204;28;20097;-80
2021/05/22 00:12:25;;;;;;;3.67;1.30;;;10.90;70.60;10.10;99913.00;;;;4941117;28;20051;-80
2021/05/22 00:14:52;;;;;;;3.58;1.67;;;11.00;69.70;10.20;99919.00;;;;4944125;28;20031;-80
2021/05/22 00:17:19;;;;;;;3.70;1.55;;;11.00;69.60;10.10;99906.00;;;;4941547;28;20036;-80
2021/05/22 00:19:45;;;;;;;;;;;11.00;70.10;10.10;99918.00;;;;4955743;28;20042;-80
2021/05/22 00:22:11;;;;;;;6.20;1.75;;;11.00;69.10;10.10;99908.00;;;;4925193;28;19981;-80
2021/05/22 00:24:37;;;;;;;6.50;1.92;;;;;10.10;99893.00;;;;4948923;28;20047;-80
2021/05/22 00:27:04;;;;;;;5.10;1.50;;;;;10.20;99879.00;;;;4957946;28;20094;-79
2021/05/22 00:29:30;;;;;;;7.73;1.63;;;11.00;68.90;10.20;99891.00;;;;4935365;28;20815;-79
2021/05/22 00:31:56;;;;;;;11.05;1.42;;;11.00;68.70;10.20;99895.00;;;;4936200;28;20079;-80
2021/05/22 00:34:22;;;;;;;7.22;1.38;;;;;10.20;99890.00;;;;4953608;28;20108;-80
2021/05/22 00:36:48;;;;;;;7.70;1.75;;;11.00;68.40;10.20;99894.00;;;;4925392;29;20043;-80
2021/05/22 00:39:14;;;;;;;4.78;1.20;;;;;10.20;99883.00;;;;4931806;29;20557;-80
2021/05/22 00:41:41;;;;;;;3.33;1.17;;;;;10.20;99866.00;;;;4917278;28;20115;-80
2021/05/22 00:44:07;;;;;;;7.60;1.33;;;11.00;68.40;10.20;99874.00;;;;4934751;28;20051;-80
2021/05/22 00:46:33;;;;;;;4.55;1.35;;;11.00;68.30;10.20;99866.00;;;;4917085;29;20298;-80
2021/05/22 00:48:59;;;;;;;10.45;1.70;;;11.00;68.30;10.10;99865.00;;;;4936630;28;20698;-81
2021/05/22 00:51:25;;;;;;;5.50;1.60;;;11.00;68.10;10.10;99873.00;;;;4938162;28;20693;-80
2021/05/22 00:53:51;;;;;;;10.07;1.80;;;11.00;68.20;10.10;99857.00;;;;4920406;29;20055;-81
2021/05/22 00:56:17;;;;;;;6.65;1.67;;;11.00;68.60;10.10;99860.00;;;;4934730;28;20506;-80
2021/05/22 00:58:44;;;;;;;7.15;1.65;;;;;10.10;99859.00;;;;4933699;28;20047;-80
2021/05/22 01:01:10;;;;;;;9.55;1.70;;;11.00;68.30;10.10;99849.00;;;;4950976;28;20050;-80
2021/05/22 01:03:49;;;;;;;5.57;1.40;;;11.00;68.00;10.10;99858.00;;;;4937288;28;20264;-80
2021/05/22 01:06:22;;;;;;;4.38;1.13;;;11.00;68.30;10.10;99849.00;;;;4953916;28;20141;-79
2021/05/22 01:08:55;;;;;;;10.38;1.20;;;11.00;68.50;10.10;99848.00;;;;4955517;28;20130;-79
2021/05/22 01:11:32;;;;;;;7.05;1.70;;;11.00;68.00;10.10;99841.00;;;;4964952;28;20552;-79
2021/05/22 01:14:04;;;;;;;7.40;1.35;;;11.00;68.40;10.10;99850.00;;;;4935497;28;20094;-80
2021/05/22 01:16:31;;;;;;;7.30;1.50;;;11.00;68.10;10.10;99848.00;;;;4932824;29;20060;-78
2021/05/22 01:19:00;;;;;;;5.35;1.42;;;11.00;68.10;10.20;99844.00;;;;4954706;28;20051;-79
2021/05/22 01:21:27;;;;;;;5.88;1.00;;;11.00;69.00;10.20;99833.00;;;;4952678;28;20503;-79
2021/05/22 01:24:05;;;;;;;2.97;1.47;;;11.10;68.00;10.20;99842.00;;;;4938090;29;20141;-80
2021/05/22 01:26:32;;;;;;;6.05;1.13;;;11.10;68.10;10.30;99838.00;;;;4944548;28;20050;-79
2021/05/22 01:28:58;;;;;;;6.50;1.63;;;11.10;68.20;10.30;99835.00;;;;4944361;28;20039;-79
2021/05/22 01:31:25;;;;;;;6.77;1.60;;;11.10;67.70;10.30;99837.00;;;;4936982;28;20058;-79
2021/05/22 01:33:52;;;;;;;8.98;1.70;;;;;10.30;99850.00;;;;4942478;28;20038;-79
2021/05/22 01:36:18;;;;;;;4.88;1.27;;;10.60;67.60;10.40;99846.00;;;;4946582;28;20150;-79
2021/05/22 01:38:44;;;;;;;5.20;1.38;;;11.10;68.50;10.40;99856.00;;;;4935323;28;20036;-79
2021/05/22 01:41:10;;;;;;;3.90;1.23;;;11.20;68.50;10.40;99831.00;;;;4927752;28;20602;-80
2021/05/22 01:43:40;;;;;;;6.03;1.48;;;11.10;68.20;10.30;99833.00;;;;4942910;28;20094;-80
2021/05/22 01:46:07;;;;;;;6.70;1.40;;;11.20;68.50;10.30;99839.00;;;;4944987;28;20993;-81
2021/05/22 01:48:33;;;;;;;3.42;1.00;;;11.10;68.40;10.40;99827.00;;;;4961514;28;20043;-80
2021/05/22 01:51:05;;;;;;;3.35;1.38;;;11.10;68.40;10.30;99827.00;;;;4950765;28;20046;-80
2021/05/22 01:53:32;;;;;;;5.72;1.30;;;11.20;68.40;10.30;99831.00;;;;4959276;28;20116;-80
2021/05/22 01:55:58;;;;;;;5.05;1.20;;;11.10;68.40;10.30;99832.00;;;;4950834;28;20050;-80
2021/05/22 01:58:25;;;;;;;4.35;1.63;;;11.20;68.40;10.30;99831.00;;;;4962126;28;20116;-80
2021/05/22 02:00:51;;;;;;;3.97;1.10;;;;;10.30;99818.00;;;;4963011;28;20120;-79
2021/05/22 02:03:27;;;;;;;6.88;1.15;;;11.80;69.30;10.30;99825.00;;;;4942732;28;20422;-79
2021/05/22 02:05:58;;;;;;;6.63;1.38;;;11.10;68.70;10.30;99829.00;;;;4944984;28;20138;-79
2021/05/22 02:08:24;;;;;;;7.63;1.35;;;11.10;69.00;10.30;99820.00;;;;4946584;28;20058;-79
2021/05/22 02:10:51;;;;;;;6.32;1.23;;;11.10;68.80;10.30;99836.00;;;;4964204;28;20039;-81
2021/05/22 02:13:19;;;;;;;5.00;1.50;;;11.10;68.80;10.30;99831.00;;;;4957300;28;20042;-79
2021/05/22 02:15:50;;;;;;;;;;;;;10.20;99838.00;;;;4960610;28;20054;-80
2021/05/22 02:18:17;;;;;;;8.50;1.50;;;11.10;69.20;10.30;99819.00;;;;4948378;28;19926;-80
2021/05/22 02:20:46;;;;;;;3.85;0.90;;;11.10;69.10;10.30;99823.00;;;;4951187;28;20058;-79
2021/05/22 02:23:15;;;;;;;6.68;1.10;;;11.10;69.30;10.20;99819.00;;;;4942473;28;20047;-80
2021/05/22 02:25:41;;;;;;;9.25;1.10;;;;;10.30;99823.00;;;;4927288;29;20048;-79
2021/05/22 02:28:08;;;;;;;5.80;1.42;;;11.10;69.20;10.30;99823.00;;;;4940024;28;20051;-80
2021/05/22 02:30:40;;;;;;;5.20;1.00;;;11.10;69.00;10.30;99824.00;;;;4945792;28;20062;-80
2021/05/22 02:33:10;;;;;;;4.63;1.13;;;11.10;69.20;10.30;99834.00;;;;4959171;28;20043;-79
2021/05/22 02:35:40;;;;;;;5.30;1.15;;;11.10;69.30;10.30;99824.00;;;;4959952;28;20069;-80
2021/05/22 02:38:10;;;;;;;7.53;1.30;;;11.20;69.30;10.30;99821.00;;;;4957527;28;20125;-80
2021/05/22 02:40:38;;;;;;;5.85;1.38;;;10.70;68.80;10.30;99822.00;;;;4940643;28;20047;-80
2021/05/22 02:43:09;;;;;;;9.80;1.40;;;11.20;69.30;10.30;99824.00;;;;4970246;28;20126;-80
2021/05/22 02:45:37;;;;;;;5.45;1.15;;;;;10.40;99807.00;;;;4971373;28;20058;-78
2021/05/22 02:48:09;;;;;;;3.03;1.00;;;11.20;70.20;10.30;99813.00;;;;4957188;28;20027;-79
2021/05/22 02:50:36;;;;;;;4.13;1.25;;;11.10;70.20;10.30;99809.00;;;;4955925;28;20058;-79
2021/05/22 02:53:02;;;;;;;;;;;;;10.20;99818.00;;;;4945430;28;20043;-79
2021/05/22 02:55:31;;;;;;;4.47;1.20;;;11.80;70.50;10.30;99799.00;;;;4940092;28;19930;-79
2021/05/22 02:57:58;;;;;;;6.35;1.65;;;11.10;70.70;10.20;99804.00;;;;4950612;28;20055;-79
2021/05/22 03:00:24;;;;;;;6.00;1.25;;;11.10;70.50;10.30;99790.00;;;;4935053;29;20528;-79
2021/05/22 03:02:51;;;;;;;3.30;1.17;;;11.10;70.20;10.30;99803.00;;;;4949066;28;20054;-79
2021/05/22 03:05:17;;;;;;;5.10;1.30;;;11.10;70.80;10.30;99803.00;;;;4936701;28;20177;-79
2021/05/22 03:07:44;;;;;;;4.88;1.30;;;11.10;70.30;10.30;99798.00;;;;4927145;28;20035;-80
2021/05/22 03:10:11;;;;;;;6.53;1.83;;;11.10;70.40;10.30;99790.00;;;;4937357;28;20131;-78
2021/05/22 03:12:38;;;;;;;6.28;1.33;;;11.20;70.30;10.40;99797.00;;;;4935440;28;20372;-80
2021/05/22 03:15:06;;;;;;;4.88;1.38;;;11.20;70.50;10.40;99802.00;;;;4934188;28;20734;-80
2021/05/22 03:17:32;;;;;;;8.02;1.45;;;;;10.40;99798.00;;;;4917171;28;20048;-79
2021/05/22 03:19:59;;;;;;;6.43;1.58;;;11.20;70.60;10.40;99799.00;;;;4934820;28;20059;-80
2021/05/22 03:22:25;;;;;;;7.80;1.77;;;11.20;70.60;10.40;99792.00;;;;4921385;28;20059;-77
2021/05/22 03:24:51;;;;;;;4.28;0.90;;;;;10.40;99797.00;;;;4934685;28;20090;-80
2021/05/22 03:27:17;;;;;;;4.37;1.17;;;11.20;70.70;10.40;99798.00;;;;4952705;28;20035;-79
2021/05/22 03:29:44;;;;;;;8.15;1.33;;;;;10.40;99799.00;;;;4938235;28;20473;-79
2021/05/22 03:32:10;;;;;;;8.47;1.27;;;11.20;70.50;10.40;99800.00;;;;4936366;28;20170;-80
2021/05/22 03:34:36;;;;;;;8.35;1.48;;;11.20;70.60;10.40;99796.00;;;;4933661;28;20054;-80
2021/05/22 03:37:02;;;;;;;4.10;1.20;;;11.20;70.60;10.40;99803.00;;;;4950798;28;20046;-80
2021/05/22 03:39:28;;;;;;;5.18;1.35;;;11.20;70.60;10.40;99787.00;;;;4936387;28;20039;-79
2021/05/22 03:41:54;;;;;;;6.10;1.45;;;11.20;70.90;10.40;99786.00;;;;4936745;28;20043;-79
2021/05/22 03:44:20;;;;;;;9.35;1.48;;;11.20;70.80;10.40;99772.00;;;;4951941;28;20031;-78
2021/05/22 03:46:46;;;;;;;5.53;1.27;;;;;10.40;99783.00;;;;4940878;28;20038;-79
2021/05/22 03:49:12;;;;;;;6.15;1.33;;;11.20;70.90;10.40;99779.00;;;;4932785;28;20103;-79
2021/05/22 03:51:38;;;;;;;4.40;1.42;;;11.20;71.50;10.40;99778.00;;;;4933455;28;20058;-79
2021/05/22 03:54:05;;;;;;;9.38;1.50;;;11.20;71.40;10.40;99788.00;;;;4946438;28;20051;-79
2021/05/22 03:56:31;;;;;;;6.97;1.20;;;11.20;71.00;10.40;99793.00;;;;4943781;28;20046;-79
2021/05/22 03:58:57;;;;;;;3.47;1.17;;;11.20;71.50;10.40;99794.00;;;;4938496;28;20052;-80
2021/05/22 04:01:23;;;;;;;3.63;1.13;;;11.20;71.70;10.40;99794.00;;;;4951592;28;20054;-79
2021/05/22 04:03:49;;;;;;;7.10;1.27;;;11.20;72.20;10.40;99793.00;;;;4959862;28;20502;-79
2021/05/22 04:06:15;;;;;;;7.32;1.60;;;11.20;72.20;10.40;99788.00;;;;4929077;28;20031;-81
2021/05/22 04:08:42;;;;;;;8.70;1.23;;;11.20;72.80;10.40;99781.00;;;;4942616;28;20030;-80
2021/05/22 04:11:08;;;;;;;8.35;1.40;;;11.20;72.00;10.40;99800.00;;;;4960810;28;20046;-80
2021/05/22 04:13:34;;;;;;;5.82;1.27;;;11.20;72.60;10.40;99790.00;;;;4959580;28;20400;-81
2021/05/22 04:16:00;;;;;;;5.35;1.45;;;11.80;72.70;10.40;99799.00;;;;4950708;28;20218;-80
2021/05/22 04:18:26;;;;;;;3.85;1.20;;;11.20;72.90;10.40;99781.00;;;;4944250;28;20035;-80
2021/05/22 04:20:51;;;;;;;7.95;1.55;;;11.20;73.00;10.40;99788.00;;;;4945555;28;20082;-80
2021/05/22 04:23:17;;;;;;;9.20;1.73;;;11.20;73.00;10.40;99784.00;;;;4951483;28;20636;-80
2021/05/22 04:25:44;;;;;;;7.47;1.70;;;;;10.40;99784.00;;;;4907322;29;20525;-81
2021/05/22 04:28:10;;;;;;;3.17;1.30;;;11.20;73.00;10.40;99777.00;;;;4924518;28;20039;-81
2021/05/22 04:30:37;;;;;;;6.10;1.50;;;11.10;73.00;10.40;99792.00;;;;4920341;29;20530;-80
2021/05/22 04:33:03;;;;;;;5.40;1.38;;;;;10.40;99781.00;;;;4923104;29;20043;-80
2021/05/22 04:35:29;;;;;;;4.93;1.43;;;11.20;73.10;10.40;99783.00;;;;4926127;28;20047;-80
2021/05/22 04:37:55;;;;;;;12.65;2.30;;;11.20;72.70;10.40;99785.00;;;;4924128;28;20449;-80
2021/05/22 04:40:21;;;;;;;8.57;1.80;;;11.20;73.10;10.40;99788.00;;;;4928496;28;20155;-80
2021/05/22 04:42:47;;;;;;;6.15;1.20;;;11.20;72.60;10.50;99779.00;;;;4958587;28;20493;-80
2021/05/22 04:45:14;;;;;;;6.10;1.40;;;11.30;72.70;10.50;99784.00;;;;4930019;28;20078;-81
2021/05/22 04:47:40;;;;;;;8.25;1.75;;;11.30;73.10;10.50;99773.00;;;;4926212;28;20558;-81
2021/05/22 04:50:08;;;;;;;5.07;1.60;;;11.30;72.70;10.50;99787.00;;;;4951743;28;20074;-81
2021/05/22 04:52:35;;;;;;;5.70;1.50;;;;;10.50;99789.00;;;;4949959;28;20059;-81
2021/05/22 04:55:02;;;;;;;8.50;1.60;;;11.30;72.70;10.50;99795.00;;;;4941129;28;20044;-81
2021/05/22 04:57:27;;;;;;;6.18;1.50;;;11.30;73.10;10.50;99788.00;;;;4922903;28;20054;-80
2021/05/22 04:59:53;;;;;;;4.50;1.35;;;11.30;73.40;10.50;99790.00;;;;4941886;28;20043;-82
2021/05/22 05:02:19;;;;;;;14.02;1.75;;;11.30;73.10;10.50;99794.00;;;;4934845;28;20062;-81
2021/05/22 05:04:45;;;;;;;7.05;1.60;;;11.30;73.40;10.60;99782.00;;;;4938121;28;20043;-82
2021/05/22 05:07:12;;;;;;;6.97;1.40;;;;;10.50;99806.00;;;;4961527;28;20552;-81
2021/05/22 05:09:38;;;;;;;8.07;1.47;;;11.30;73.30;10.50;99804.00;;;;4955344;28;20050;-82
2021/05/22 05:12:07;;;;;;;6.57;1.40;;;11.30;74.30;10.50;99792.00;;;;4941632;28;20043;-81
2021/05/22 05:14:33;;;;;;;9.27;1.75;;;13.60;75.30;10.50;99788.00;;;;4944140;28;20055;-81
2021/05/22 05:17:00;;;;;;;8.35;1.70;;;11.30;74.10;10.50;99792.00;;;;4919451;28;20040;-82
2021/05/22 05:19:28;;;;;;;7.38;1.70;;;11.30;73.80;10.50;99809.00;;;;4955437;28;20776;-82
2021/05/22 05:21:55;;;;;;;8.75;1.83;;;;;10.50;99798.00;;;;4949567;28;20043;-81
2021/05/22 05:24:22;;;;;;;9.65;1.55;;;11.40;74.60;10.50;99797.00;;;;4949229;28;20485;-81
2021/05/22 05:26:48;;;;;;;5.47;1.83;;;11.40;74.30;10.50;99797.00;;;;4955531;28;20050;-81
2021/05/22 05:29:14;;;;;;;11.68;1.92;;;11.30;74.60;10.50;99801.00;;;;4923499;28;20036;-81
2021/05/22 05:31:40;;;;;;;4.68;1.77;;;;;10.50;99809.00;;;;4932735;28;20645;-80
2021/05/22 05:34:06;;;;;;;6.07;1.30;;;;;10.50;99822.00;;;;4912806;28;20371;-80
2021/05/22 05:36:33;;;;;;;8.07;1.70;;;11.30;76.80;10.50;99817.00;;;;4967620;28;20055;-81
2021/05/22 05:39:00;;;;;;;11.20;1.90;;;;;10.40;99808.00;;;;4950741;28;20122;-80
2021/05/22 05:41:25;;;;;;;7.15;1.90;;;11.30;77.40;10.40;99819.00;;;;4969558;28;20683;-81
2021/05/22 05:43:52;;;;;;;10.10;2.00;;;11.30;76.10;10.40;99799.00;;;;4935956;29;20094;-80
2021/05/22 05:46:18;;;;;;;11.85;2.60;;;11.20;76.80;10.40;99821.00;;;;4930534;28;20039;-81
2021/05/22 05:48:44;;;;;;;12.75;2.08;;;11.20;77.00;10.40;99821.00;;;;4952728;28;20051;-81
2021/05/22 05:51:10;;;;;;;9.35;2.25;;;11.20;78.40;10.40;99826.00;;;;4936446;28;20047;-81
2021/05/22 05:53:36;;;;;;;12.45;2.13;;;11.20;76.40;10.40;99832.00;;;;4937332;28;20047;-81
2021/05/22 05:56:03;;;;;;;8.45;1.80;;;11.20;77.30;10.40;99833.00;;;;4932852;28;20044;-81
2021/05/22 05:58:29;;;;;;;10.45;1.92;;;11.10;78.10;10.40;99826.00;;;;4936630;28;20588;-81
2021/05/22 06:00:55;;;;;;;7.80;1.85;;;;;10.40;99825.00;;;;4919941;29;20067;-81
2021/05/22 06:03:31;;;;;;;7.47;2.25;;;11.20;76.90;10.30;99824.00;;;;4952590;28;20039;-81
2021/05/22 06:05:58;;;;;;;8.15;1.92;;;11.20;77.10;10.40;99835.00;;;;4937457;28;20783;-82
2021/05/22 06:08:25;;;;;;;15.93;2.13;;;11.10;76.80;10.40;99835.00;;;;4939893;28;20576;-82
2021/05/22 06:10:53;;;;;;;8.02;2.25;;;11.20;78.00;10.40;99833.00;;;;4937750;28;20055;-82
2021/05/22 06:13:31;;;;;;;9.10;1.95;;;11.20;76.90;10.40;99842.00;;;;4937019;28;20197;-82
2021/05/22 06:16:12;;;;;;;8.98;2.15;;;11.20;77.80;10.40;99834.00;;;;4925131;29;20133;-82
2021/05/22 06:18:39;;;;;;;7.55;1.90;;;11.20;77.40;10.50;99827.00;;;;4950497;28;20038;-81
2021/05/22 06:21:07;;;;;;;11.02;2.88;;;11.30;77.40;10.40;99838.00;;;;4950246;28;20038;-81
2021/05/22 06:23:34;;;;;;;12.65;3.20;;;11.30;77.10;10.50;99837.00;;;;4939458;28;20083;-80
2021/05/22 06:26:01;;;;;;;10.88;2.55;;;11.30;77.40;10.50;99834.00;;;;4938218;28;20063;-81
2021/05/22 06:28:28;;;;;;;13.30;2.40;;;11.30;77.20;10.50;99834.00;;;;4946393;28;20042;-80
2021/05/22 06:31:04;;;;;;;8.30;2.20;;;11.30;77.10;10.50;99849.00;;;;4961271;28;20513;-81
2021/05/22 06:33:30;;;;;;;12.98;2.30;;;11.30;77.10;10.50;99843.00;;;;4943216;28;20074;-80
2021/05/22 06:35:57;;;;;;;8.93;1.88;;;11.40;77.50;10.60;99853.00;;;;4962063;28;20039;-81
2021/05/22 06:38:23;;;;;;;9.73;2.10;;;;;10.60;99839.00;;;;4947161;28;20188;-81
2021/05/22 06:40:50;;;;;;;7.50;1.90;;;11.40;78.60;10.60;99835.00;;;;4938923;28;20079;-80
2021/05/22 06:43:16;;;;;;;5.53;2.00;;;11.40;77.50;10.60;99851.00;;;;4970863;28;20051;-79
2021/05/22 06:45:56;;;;;;;10.93;2.03;;;11.40;78.00;10.60;99854.00;;;;4936967;28;20126;-81
2021/05/22 06:48:22;;;;;;;10.85;2.45;;;11.40;77.70;10.60;99850.00;;;;4936774;28;20113;-80
2021/05/22 06:50:48;;;;;;;7.93;2.55;;;11.40;77.80;10.60;99853.00;;;;4934708;28;20047;-80
2021/05/22 06:53:13;;;;;;;8.98;2.30;;;11.40;77.80;10.60;99853.00;;;;4921063;29;20109;-81
2021/05/22 06:55:40;;;;;;;8.60;1.92;;;11.50;78.10;10.60;99855.00;;;;4918218;29;20056;-81
2021/05/22 06:58:06;;;;;;;10.57;2.63;;;;;10.60;99868.00;;;;4904021;29;20539;-81
2021/05/22 07:00:32;;;;;;;8.25;2.40;;;11.50;78.10;10.60;99867.00;;;;4947227;28;20050;-81
2021/05/22 07:02:58;;;;;;;7.57;1.98;;;11.50;78.60;10.60;99863.00;;;;4943706;28;20332;-81
2021/05/22 07:05:24;;;;;;;8.73;2.28;;;11.50;78.70;10.60;99874.00;;;;4934324;28;20048;-82
2021/05/22 07:07:51;;;;;;;7.72;1.80;;;;;10.60;99865.00;;;;4922006;28;20047;-82
2021/05/22 07:10:17;;;;;;;6.47;2.00;;;11.40;78.40;10.60;99870.00;;;;4935640;28;20052;-81
2021/05/22 07:12:43;;;;;;;8.48;2.50;;;11.40;79.10;10.60;99879.00;;;;4907307;29;20070;-81
2021/05/22 07:15:10;;;;;;;7.10;1.75;;;11.30;78.80;10.60;99879.00;;;;4937363;28;20074;-81
2021/05/22 07:17:36;;;;;;;10.25;1.80;;;11.30;79.10;10.60;99893.00;;;;4938011;28;20043;-81
2021/05/22 07:20:04;;;;;;;6.00;1.85;;;11.40;78.90;10.60;99888.00;;;;4933168;28;20047;-82
2021/05/22 07:22:30;;;;;;;7.57;1.52;;;11.40;78.80;10.60;99889.00;;;;4947843;28;20066;-82
2021/05/22 07:24:57;;;;;;;7.80;1.65;;;;;10.60;99888.00;;;;4958609;28;20155;-81
2021/05/22 07:27:23;;;;;;;9.05;2.42;;;11.80;80.90;10.60;99884.00;;;;4937071;28;20042;-82
2021/05/22 07:29:51;;;;;;;6.28;1.70;;;13.20;80.80;10.60;99896.00;;;;4952587;28;20046;-82
2021/05/22 07:32:17;;;;;;;7.28;2.10;;;11.40;79.60;10.60;99899.00;;;;4936206;29;20086;-82
2021/05/22 07:34:44;;;;;;;9.18;2.03;;;;;10.50;99896.00;;;;4921021;28;20039;-81
2021/05/22 07:37:10;;;;;;;6.53;2.13;;;12.60;81.20;10.50;99905.00;;;;4920438;29;20497;-81
2021/05/22 07:39:36;;;;;;;7.57;1.98;;;11.30;80.60;10.50;99896.00;;;;4935773;28;20044;-80
2021/05/22 07:42:03;;;;;;;5.30;1.55;;;11.30;80.50;10.50;99914.00;;;;4938023;28;20051;-81
2021/05/22 07:44:29;;;;;;;7.07;1.70;;;12.70;81.40;10.50;99911.00;;;;4935339;28;20398;-82
2021/05/22 07:46:55;;;;;;;5.43;2.25;;;11.30;80.90;10.50;99907.00;;;;4934180;28;20062;-80
2021/05/22 07:49:21;;;;;;;7.72;2.10;;;11.40;81.50;10.50;99918.00;;;;4933872;28;20067;-81
2021/05/22 07:51:46;;;;;;;10.20;2.13;;;11.40;80.90;10.60;99917.00;;;;4960475;28;20105;-82
2021/05/22 07:54:14;;;;;;;7.82;2.08;;;;;10.60;99921.00;;;;4955188;28;20046;-85
2021/05/22 07:56:40;;;;;;;8.93;2.13;;;;;10.60;99927.00;;;;4941597;28;20079;-82
2021/05/22 07:59:06;;;;;;;5.63;1.83;;;11.40;82.90;10.60;99915.00;;;;4938506;28;20055;-81
2021/05/22 08:01:33;;;;;;;7.82;2.05;;;11.40;82.50;10.60;99925.00;;;;4937021;28;20152;-80
2021/05/22 08:03:59;;;;;;;;;;;11.40;83.90;10.60;99935.00;;;;4955528;28;20465;-81
2021/05/22 08:06:25;;;;;;;7.20;2.33;;;11.40;81.60;10.60;99917.00;;;;4953622;28;19977;-81
2021/05/22 08:08:52;;;;;;;8.95;2.20;;;;;10.60;99933.00;;;;4937199;28;20042;-81
2021/05/22 08:11:18;;;;;;;5.85;2.28;;;;;10.60;99945.00;;;;4958366;28;20031;-80
2021/05/22 08:13:44;;;;;;;9.95;2.47;;;11.40;82.20;10.60;99930.00;;;;4957667;28;20500;-80
2021/05/22 08:16:13;;;;;;;7.10;2.35;;;11.40;83.10;10.60;99914.00;;;;4955994;28;20094;-81
2021/05/22 08:18:39;;;;;;;8.43;2.20;;;10.90;82.80;10.60;99924.00;;;;4941255;28;20047;-80
2021/05/22 08:21:06;;;;;;;9.00;2.20;;;11.40;83.00;10.60;99927.00;;;;4953083;28;20051;-81
2021/05/22 08:23:32;;;;;;;7.68;2.60;;;11.50;82.60;10.70;99942.00;;;;4934395;28;20137;-80
2021/05/22 08:25:58;;;;;;;6.03;1.92;;;11.50;82.90;10.60;99937.00;;;;4935725;28;20407;-81
2021/05/22 08:28:26;;;;;;;5.90;2.50;;;;;10.70;99944.00;;;;4917584;28;20068;-81
2021/05/22 08:30:53;;;;;;;6.47;2.38;;;11.40;84.00;10.70;99942.00;;;;4919298;29;20038;-80
2021/05/22 08:33:19;;;;;;;8.30;2.03;;;11.50;83.40;10.60;99949.00;;;;4930810;28;20251;-79
2021/05/22 08:35:45;;;;;;;6.35;2.10;;;11.50;82.90;10.60;99954.00;;;;4930125;29;20465;-79
2021/05/22 08:38:11;;;;;;;6.20;2.13;;;11.40;84.70;10.60;99949.00;;;;4933958;28;20151;-80
2021/05/22 08:40:38;;;;;;;7.32;2.20;;;11.50;83.70;10.70;99946.00;;;;4946496;28;20047;-79
2021/05/22 08:43:04;;;;;;;5.53;2.13;;;11.50;83.70;10.60;99941.00;;;;4926856;28;20074;-79
2021/05/22 08:45:31;;;;;;;7.57;2.00;;;11.50;83.60;10.70;99956.00;;;;4969970;28;20039;-79
2021/05/22 08:47:58;;;;;;;13.32;3.30;;;11.50;83.90;10.70;99964.00;;;;4948916;28;20059;-80
2021/05/22 08:50:24;;;;;;;4.70;1.95;;;11.50;84.00;10.70;99952.00;;;;4941777;28;20085;-79
2021/05/22 08:52:54;;;;;;;6.72;2.38;;;;;10.70;99964.00;;;;4942028;28;20048;-80
2021/05/22 08:55:22;;;;;;;7.57;1.67;;;11.50;83.80;10.70;99967.00;;;;4918584;28;20766;-79
2021/05/22 08:57:48;;;;;;;6.40;2.00;;;11.50;84.00;10.70;99962.00;;;;4934582;28;20043;-79
2021/05/22 09:00:18;;;;;;;6.82;2.30;;;11.50;84.10;10.70;99962.00;;;;4932762;28;20039;-79
2021/05/22 09:02:45;;;;;;;8.52;2.10;;;11.50;83.90;10.70;99967.00;;;;4933450;28;20687;-79
2021/05/22 09:05:25;;;;;;;9.95;2.30;;;11.50;83.70;10.70;99972.00;;;;4971096;28;20571;-79
2021/05/22 09:07:57;;;;;;;7.75;2.00;;;11.60;84.80;10.80;99968.00;;;;4931889;28;20062;-80
2021/05/22 09:10:36;;;;;;;7.07;2.05;;;11.60;84.50;10.80;99969.00;;;;4933096;28;20048;-80
2021/05/22 09:13:10;;;;;;;7.10;2.28;;;11.70;83.40;10.80;99961.00;;;;4962761;28;20042;-80
2021/05/22 09:15:40;;;;;;;4.85;2.03;;;11.70;83.60;10.90;99976.00;;;;4920874;28;20746;-80
2021/05/22 09:18:14;;;;;;;7.53;2.40;;;11.70;84.00;10.90;99973.00;;;;4929900;28;20576;-80
2021/05/22 09:20:43;;;;;;;7.10;2.05;;;;;11.00;99985.00;;;;4934095;28;20660;-80
2021/05/22 09:23:13;;;;;;;9.70;2.20;;;12.20;84.40;11.00;99973.00;;;;4949440;28;20075;-79
2021/05/22 09:25:41;;;;;;;5.40;2.05;;;;;11.00;99979.00;;;;4956517;28;20070;-79
2021/05/22 09:28:09;;;;;;;6.50;2.22;;;11.80;83.90;11.00;99983.00;;;;4933656;28;20043;-78
2021/05/22 09:30:38;;;;;;;7.72;2.42;;;;;11.10;99993.00;;;;4929603;28;20035;-81
2021/05/22 09:33:26;;;;;;;4.55;2.08;;;11.80;83.40;11.00;99993.00;;;;4922368;28;20089;-79
2021/05/22 09:35:54;;;;;;;5.68;2.08;;;;;11.10;99994.00;;;;4954963;28;20047;-84
2021/05/22 09:38:20;;;;;;;4.13;1.80;;;11.80;84.10;11.10;99975.00;;;;4928589;28;21017;-80
2021/05/22 09:40:47;;;;;;;6.03;2.17;;;11.90;83.70;11.10;99988.00;;;;4938813;28;20543;-80
2021/05/22 09:43:14;;;;;;;4.43;2.13;;;;;11.10;100004.00;;;;4954366;28;20556;-80
2021/05/22 09:45:42;;;;;;;4.32;1.85;;;11.70;83.70;11.20;99993.00;;;;4952251;28;20450;-79
2021/05/22 09:48:16;;;;;;;3.88;2.00;;;11.90;83.40;11.20;99997.00;;;;4935824;28;20134;-80
2021/05/22 09:50:47;;;;;;;4.40;2.10;;;12.00;83.40;11.20;100000.00;;;;4947303;28;20075;-80
2021/05/22 09:53:31;;;;;;;5.07;2.10;;;12.00;83.20;11.30;100004.00;;;;4941286;28;20468;-80
2021/05/22 09:56:22;;;;;;;4.88;1.58;;;12.10;82.90;11.30;100008.00;;;;4947289;28;20864;-80
2021/05/22 09:58:54;;;;;;;4.40;1.90;;;12.10;83.30;11.30;100017.00;;;;4943442;28;20044;-80
2021/05/22 10:01:30;;;;;;;4.72;1.95;;;12.10;83.20;11.30;100020.00;;;;4953444;28;20655;-79
2021/05/22 10:04:20;;;;;;;3.60;1.70;;;12.20;83.00;11.40;100022.00;;;;4950596;28;20055;-80
2021/05/22 10:06:46;;;;;;;6.35;2.00;;;12.20;82.70;11.40;100029.00;;;;4947189;28;20057;-80
2021/05/22 10:09:15;;;;;;;3.45;1.60;;;12.30;83.00;11.50;100026.00;;;;4939134;28;20061;-80
2021/05/22 10:12:04;;;;;;;5.90;2.00;;;;;11.50;100029.00;;;;4965996;28;20043;-80
2021/05/22 10:14:35;;;;;;;;;;;12.30;83.60;11.50;100036.00;;;;4934063;28;20137;-80
2021/05/22 10:17:03;;;;;;;5.68;2.05;;;12.30;82.70;11.50;100036.00;;;;4940901;28;20556;-80
2021/05/22 10:19:32;;;;;;;4.72;2.00;;;12.30;82.40;11.50;100038.00;;;;4921827;28;20544;-81
2021/05/22 10:21:59;;;;;;;2.80;1.70;;;12.30;82.70;11.60;100045.00;;;;4940284;28;20050;-80
2021/05/22 10:24:26;;;;;;;6.47;2.30;;;12.30;82.30;11.60;100042.00;;;;4953552;28;20049;-79
2021/05/22 10:26:53;;;;;;;5.65;2.08;;;;;11.60;100057.00;;;;4928014;28;20142;-80
2021/05/22 10:29:23;;;;;;;5.05;2.00;;;12.40;82.90;11.60;100064.00;;;;4937973;28;20134;-82
2021/05/22 10:31:51;;;;;;;3.30;2.00;;;12.40;83.10;11.70;100054.00;;;;4941946;28;20043;-81
2021/05/22 10:34:24;;;;;;;2.38;2.08;;;12.40;82.70;11.70;100057.00;;;;4920334;28;20138;-81
2021/05/22 10:36:56;;;;;;;5.25;2.30;;;12.40;83.20;11.80;100061.00;;;;4948604;28;21396;-80
2021/05/22 10:39:44;;;;;;;6.25;2.30;;;12.50;82.60;11.80;100057.00;;;;4953755;28;20516;-81
2021/05/22 10:42:30;;;;;;;5.03;2.45;;;12.50;82.50;11.70;100078.00;;;;4952260;28;20081;-81
2021/05/22 10:44:57;;;;;;;5.00;2.35;;;12.50;83.40;11.70;100075.00;;;;4950650;28;20133;-81
2021/05/22 10:47:28;;;;;;;5.45;2.10;;;12.40;82.90;11.60;100079.00;;;;4938398;28;20544;-81
2021/05/22 10:50:04;;;;;;;4.03;2.22;;;12.40;83.00;11.60;100077.00;;;;4936623;28;20059;-81
2021/05/22 10:52:37;;;;;;;3.92;2.00;;;12.40;83.30;11.60;100084.00;;;;4949403;28;20057;-81
2021/05/22 10:55:10;;;;;;;5.20;2.35;;;;;11.60;100079.00;;;;4945009;28;20047;-80
2021/05/22 10:57:48;;;;;;;2.60;1.90;;;12.40;83.30;11.60;100084.00;;;;4958716;28;20469;-80
2021/05/22 11:00:15;;;;;;;6.15;2.50;;;12.30;83.40;11.60;100082.00;;;;4957544;28;20062;-81
2021/05/22 11:02:54;;;;;;;4.10;2.33;;;12.40;83.00;11.70;100089.00;;;;4956929;28;20134;-81
2021/05/22 11:05:32;;;;;;;4.38;2.13;;;12.50;83.20;11.80;100092.00;;;;4940116;28;20292;-81
2021/05/22 11:08:04;;;;;;;4.10;2.55;;;12.60;83.50;11.90;100083.00;;;;4958121;28;20039;-79
2021/05/22 11:10:48;;;;;;;8.93;3.08;;;12.60;83.70;12.00;100104.00;;;;4949876;28;20059;-82